Airfield :
LOGIN :

Register | Disclaimer

   EN    FR    IT 

 










Legend :    VFR   Marginal VFR   IFR   Intensive IFR   Very Intensive IFR
Visi :
Ceiling :
>= 8 km
>= 3000ft
5 to 8 km
1000 to 3000 ft
1500m to 5 km
500 to 1000 ft
800 to 1500m
200 to 500 ft
< 800m
< 200 ft
Symbols :   Thunderstorms  Fog  Heavy snow  Heavy precipitations  Wind > 20 kt
SIGMETs :     Misc.  Thunderstorms  Icing  Turbulence  Mountain Waves  Volcanic Ashes






- Airport Elevation : 154 ft
- IATA code : SZZ


EPSC - Szczecin Goleniow

CURRENT METAR :
  • 280500Z 13006KT 9999 SCT014 13/12 Q1019

EXPIRED METARs :
  • 280430Z 13005KT 9999 BKN018 14/12 Q1019
  • 280400Z 13006KT 9999 FEW021 13/12 Q1019
  • 280330Z 12005KT 9999 -SHRA FEW045CB 13/13 Q1018
  • 280300Z 14006KT 9999 FEW013 14/13 Q1018
  • 280230Z 13005KT CAVOK 15/12 Q1018

TAF TAF EPSC
Valid from the 28 at 00:00 until the 29 at 00:00 UTC


272330Z 2800/2824 14010KT 9999 BKN030
TEMPO 2800/2804 -SHRA BKN020CB
TEMPO 2804/2814 SHRA BKN006 BKN012CB
BECMG 2805/2808 VRB02KT
PROB40
TEMPO 2814/2824 BKN014



MET'MAP, your aeronautical weather chart ! - Copyright ORBIFLY December 2007 - Disclaimer

ORBIFLY MET'MAP TEAM :

Programming & Development : Alexandra Zaïnal
Concept & original design : Baudouin d'Aumeries
Assistance for programming : Marc-Olivier Méhu
Technical & hardware support : Manuel Goepfert

Contact : metmap@orbifly.com




SOURCES & CREDITS :

   NOAA